createdAt,value
2018-12-07T00:00:33.580Z,100.00
2018-12-07T00:03:00.373Z,100.00
2018-12-07T00:05:27.129Z,100.00
2018-12-07T00:07:53.984Z,100.00
2018-12-07T00:10:20.733Z,100.00
2018-12-07T00:12:47.529Z,100.00
2018-12-07T00:15:14.288Z,100.00
2018-12-07T00:17:41.062Z,100.00
2018-12-07T00:20:07.984Z,100.00
2018-12-07T00:22:34.761Z,100.00
2018-12-07T00:25:01.585Z,100.00
2018-12-07T00:27:28.399Z,100.00
2018-12-07T00:29:55.161Z,100.00
2018-12-07T00:32:21.929Z,100.00
2018-12-07T00:34:48.689Z,100.00
2018-12-07T00:37:15.460Z,100.00
2018-12-07T00:39:42.212Z,99.32
2018-12-07T00:42:09.333Z,98.68
2018-12-07T00:44:36.021Z,99.85
2018-12-07T00:47:03.101Z,99.70
2018-12-07T00:49:29.852Z,98.39
2018-12-07T00:51:56.625Z,97.69
2018-12-07T00:54:23.377Z,98.08
2018-12-07T00:56:50.149Z,98.19
2018-12-07T00:59:16.929Z,98.63
2018-12-07T01:01:43.706Z,99.56
2018-12-07T01:04:10.465Z,99.24
2018-12-07T01:06:37.240Z,100.00
2018-12-07T01:09:05.100Z,99.53
2018-12-07T01:11:31.891Z,100.00
2018-12-07T01:13:58.645Z,100.00
2018-12-07T01:16:25.400Z,100.00
2018-12-07T01:18:52.199Z,100.00
2018-12-07T01:21:19.100Z,100.00
2018-12-07T01:23:45.881Z,100.00
2018-12-07T01:26:12.649Z,100.00
2018-12-07T01:28:39.440Z,100.00
2018-12-07T01:31:06.205Z,100.00
2018-12-07T01:33:32.965Z,100.00
2018-12-07T01:35:59.737Z,100.00
2018-12-07T01:38:26.524Z,100.00
2018-12-07T01:40:53.328Z,100.00
2018-12-07T01:43:20.081Z,100.00
2018-12-07T01:45:46.864Z,100.00
2018-12-07T01:48:13.691Z,100.00
2018-12-07T01:50:40.429Z,100.00
2018-12-07T01:53:07.180Z,100.00
2018-12-07T01:55:33.979Z,100.00
2018-12-07T01:58:00.745Z,100.00
2018-12-07T02:00:27.509Z,100.00
2018-12-07T02:02:54.297Z,100.00
2018-12-07T02:05:21.064Z,100.00
2018-12-07T02:07:47.862Z,100.00
2018-12-07T02:10:14.688Z,100.00
2018-12-07T02:12:41.508Z,100.00
2018-12-07T02:15:08.261Z,100.00
2018-12-07T02:17:35.044Z,100.00
2018-12-07T02:20:01.813Z,100.00
2018-12-07T02:22:28.603Z,100.00
2018-12-07T02:24:55.393Z,100.00
2018-12-07T02:27:22.184Z,100.00
2018-12-07T02:29:48.917Z,100.00
2018-12-07T02:32:15.680Z,100.00
2018-12-07T02:34:42.459Z,100.00
2018-12-07T02:37:09.220Z,100.00
2018-12-07T02:39:36.001Z,100.00
2018-12-07T02:42:02.784Z,100.00
2018-12-07T02:44:29.573Z,99.26
2018-12-07T02:46:56.337Z,99.42
2018-12-07T02:49:23.101Z,99.55
2018-12-07T02:51:49.873Z,99.96
2018-12-07T02:54:16.648Z,99.53
2018-12-07T02:56:43.434Z,99.30
2018-12-07T02:59:10.185Z,98.76
2018-12-07T03:01:36.963Z,98.34
2018-12-07T03:04:03.716Z,99.27
2018-12-07T03:06:30.521Z,99.28
2018-12-07T03:08:57.284Z,98.57
2018-12-07T03:11:24.156Z,97.92
2018-12-07T03:13:50.917Z,98.62
2018-12-07T03:16:17.697Z,99.19
2018-12-07T03:18:44.465Z,98.63
2018-12-07T03:21:11.238Z,99.31
2018-12-07T03:23:37.992Z,100.00
2018-12-07T03:26:04.770Z,100.00
2018-12-07T03:28:31.523Z,100.00
2018-12-07T03:30:58.317Z,100.00
2018-12-07T03:33:25.057Z,99.89
2018-12-07T03:35:51.805Z,99.97
2018-12-07T03:38:18.576Z,99.49
2018-12-07T03:40:45.348Z,99.72
2018-12-07T03:43:12.129Z,99.80
2018-12-07T03:45:38.893Z,98.49
2018-12-07T03:48:05.728Z,98.00
2018-12-07T03:50:32.473Z,98.47
2018-12-07T03:52:59.264Z,98.37
2018-12-07T03:55:26.018Z,97.17
2018-12-07T03:57:52.808Z,97.89
2018-12-07T04:00:19.574Z,97.78
2018-12-07T04:02:46.345Z,96.72
2018-12-07T04:05:13.100Z,96.60
2018-12-07T04:07:39.870Z,96.65
2018-12-07T04:10:06.657Z,97.16
2018-12-07T04:12:33.432Z,96.37
2018-12-07T04:15:00.193Z,96.21
2018-12-07T04:17:26.978Z,96.11
2018-12-07T04:19:53.732Z,96.41
2018-12-07T04:22:20.504Z,95.79
2018-12-07T04:24:47.272Z,96.12
2018-12-07T04:27:14.049Z,95.81
2018-12-07T04:29:40.807Z,96.31
2018-12-07T04:32:07.676Z,96.05
2018-12-07T04:34:34.442Z,96.14
2018-12-07T04:37:01.214Z,95.60
2018-12-07T04:39:27.977Z,96.20
2018-12-07T04:41:54.766Z,95.71
2018-12-07T04:44:21.531Z,96.17
2018-12-07T04:46:48.318Z,96.37
2018-12-07T04:49:15.069Z,96.04
2018-12-07T04:51:41.853Z,96.27
2018-12-07T04:54:08.670Z,96.71
2018-12-07T04:56:35.437Z,97.69
2018-12-07T04:59:02.329Z,97.97
2018-12-07T05:01:29.113Z,97.57
2018-12-07T05:03:55.887Z,97.87
2018-12-07T05:06:22.633Z,98.65
2018-12-07T05:08:49.401Z,97.99
2018-12-07T05:11:16.181Z,98.97
2018-12-07T05:13:42.941Z,99.01
2018-12-07T05:16:09.690Z,98.47
2018-12-07T05:18:36.465Z,98.86
2018-12-07T05:21:03.311Z,99.19
2018-12-07T05:23:30.146Z,98.46
2018-12-07T05:25:56.900Z,98.61
2018-12-07T05:28:23.726Z,98.72
2018-12-07T05:30:50.469Z,98.76
2018-12-07T05:33:17.245Z,100.00
2018-12-07T05:35:43.998Z,100.00
2018-12-07T05:38:10.781Z,100.00
2018-12-07T05:40:37.541Z,100.00
2018-12-07T05:43:04.317Z,100.00
2018-12-07T05:45:31.113Z,100.00
2018-12-07T05:47:57.895Z,100.00
2018-12-07T05:50:24.660Z,99.20
2018-12-07T05:52:51.434Z,99.79
2018-12-07T05:55:18.182Z,100.00
2018-12-07T05:57:44.985Z,98.97
2018-12-07T06:00:11.739Z,98.37
2018-12-07T06:02:38.521Z,97.99
2018-12-07T06:05:06.592Z,96.68
2018-12-07T06:07:33.381Z,96.74
2018-12-07T06:10:00.129Z,96.51
2018-12-07T06:12:26.920Z,96.17
2018-12-07T06:14:53.678Z,96.00
2018-12-07T06:17:20.453Z,94.80
2018-12-07T06:19:47.218Z,94.33
2018-12-07T06:22:13.996Z,94.05
2018-12-07T06:24:40.753Z,93.50
2018-12-07T06:27:08.375Z,93.68
2018-12-07T06:29:34.309Z,94.47
2018-12-07T06:32:01.060Z,93.39
2018-12-07T06:34:27.832Z,93.02
2018-12-07T06:36:54.580Z,92.66
2018-12-07T06:39:21.425Z,91.83
2018-12-07T06:41:48.204Z,92.73
2018-12-07T06:44:14.982Z,91.64
2018-12-07T06:46:41.755Z,91.39
2018-12-07T06:49:10.740Z,91.52
2018-12-07T06:51:37.812Z,90.66
2018-12-07T06:54:04.592Z,92.00
2018-12-07T06:56:31.357Z,91.59
2018-12-07T06:58:58.136Z,92.76
2018-12-07T07:01:24.905Z,92.36
2018-12-07T07:03:51.678Z,93.27
2018-12-07T07:06:18.440Z,93.52
2018-12-07T07:08:45.221Z,93.63
2018-12-07T07:11:11.972Z,93.52
2018-12-07T07:13:38.749Z,93.04
2018-12-07T07:16:05.506Z,92.83
2018-12-07T07:18:32.334Z,92.77
2018-12-07T07:20:59.203Z,91.89
2018-12-07T07:23:25.976Z,91.67
2018-12-07T07:25:52.732Z,91.95
2018-12-07T07:28:19.553Z,91.24
2018-12-07T07:30:46.313Z,92.05
2018-12-07T07:33:13.084Z,91.74
2018-12-07T07:35:39.844Z,91.55
2018-12-07T07:38:06.625Z,91.02
2018-12-07T07:40:33.394Z,90.38
2018-12-07T07:43:00.172Z,90.83
2018-12-07T07:45:26.981Z,90.60
2018-12-07T07:47:53.740Z,90.29
2018-12-07T07:50:20.518Z,91.50
2018-12-07T07:52:47.270Z,91.70
2018-12-07T07:55:14.048Z,91.83
2018-12-07T07:57:40.805Z,91.78
2018-12-07T08:00:07.644Z,91.77
2018-12-07T08:02:34.394Z,91.44
2018-12-07T08:05:01.169Z,91.26
2018-12-07T08:07:27.927Z,91.89
2018-12-07T08:09:54.697Z,91.26
2018-12-07T08:12:21.462Z,90.50
2018-12-07T08:14:48.241Z,89.95
2018-12-07T08:17:15.001Z,91.18
2018-12-07T08:19:41.773Z,91.51
2018-12-07T08:22:08.663Z,90.60
2018-12-07T08:24:35.433Z,90.45
2018-12-07T08:27:02.188Z,90.45
2018-12-07T08:29:28.973Z,89.94
2018-12-07T08:31:55.745Z,90.96
2018-12-07T08:34:22.546Z,90.27
2018-12-07T08:36:49.304Z,90.49
2018-12-07T08:39:16.121Z,91.03
2018-12-07T08:41:42.853Z,90.62
2018-12-07T08:44:09.628Z,90.79
2018-12-07T08:46:36.400Z,91.42
2018-12-07T08:49:03.185Z,90.55
2018-12-07T08:51:29.941Z,90.37
2018-12-07T08:53:56.720Z,91.54
2018-12-07T08:56:23.584Z,92.00
2018-12-07T08:58:50.344Z,90.67
2018-12-07T09:01:17.133Z,90.57
2018-12-07T09:03:43.913Z,90.99
2018-12-07T09:06:10.692Z,91.17
2018-12-07T09:08:37.462Z,90.64
2018-12-07T09:11:04.248Z,91.42
2018-12-07T09:13:31.004Z,90.26
2018-12-07T09:15:57.793Z,91.24
2018-12-07T09:18:24.561Z,91.35
2018-12-07T09:20:54.213Z,89.91
2018-12-07T09:23:18.109Z,90.45
2018-12-07T09:25:44.892Z,91.33
2018-12-07T09:28:11.657Z,91.11
2018-12-07T09:30:38.432Z,91.54
2018-12-07T09:33:05.217Z,90.07
2018-12-07T09:35:32.005Z,90.22
2018-12-07T09:37:58.769Z,90.50
2018-12-07T09:40:25.621Z,90.05
2018-12-07T09:42:52.388Z,88.43
2018-12-07T09:45:19.176Z,87.80
2018-12-07T09:47:45.932Z,88.18
2018-12-07T09:50:12.725Z,88.96
2018-12-07T09:52:39.481Z,88.91
2018-12-07T09:55:06.268Z,88.65
2018-12-07T09:57:33.029Z,88.60
2018-12-07T09:59:59.820Z,88.40
2018-12-07T10:02:26.581Z,88.22
2018-12-07T10:04:53.368Z,87.61
2018-12-07T10:07:20.172Z,87.52
2018-12-07T10:09:46.936Z,86.95
2018-12-07T10:12:14.148Z,87.38
2018-12-07T10:14:40.953Z,87.56
2018-12-07T10:17:07.749Z,87.70
2018-12-07T10:19:34.517Z,87.18
2018-12-07T10:22:01.302Z,86.67
2018-12-07T10:24:28.065Z,87.74
2018-12-07T10:26:54.853Z,86.42
2018-12-07T10:29:21.614Z,86.25
2018-12-07T10:31:48.392Z,85.67
2018-12-07T10:34:15.141Z,85.72
2018-12-07T10:36:41.921Z,86.55
2018-12-07T10:39:08.680Z,86.16
2018-12-07T10:41:35.456Z,86.35
2018-12-07T10:44:02.329Z,87.11
2018-12-07T10:46:29.120Z,86.72
2018-12-07T10:48:55.873Z,86.85
2018-12-07T10:51:22.720Z,87.84
2018-12-07T10:53:49.624Z,87.74
2018-12-07T10:56:16.393Z,87.66
2018-12-07T10:58:43.203Z,87.30
2018-12-07T11:01:15.793Z,87.27
2018-12-07T11:03:48.465Z,87.49
2018-12-07T11:06:36.979Z,89.10
2018-12-07T11:09:11.546Z,91.70
2018-12-07T11:11:39.789Z,93.22
2018-12-07T11:14:12.198Z,92.94
2018-12-07T11:16:45.625Z,92.29
2018-12-07T11:19:18.292Z,91.90
2018-12-07T11:21:50.899Z,93.39
2018-12-07T11:24:23.577Z,92.62
2018-12-07T11:26:56.254Z,91.96
2018-12-07T11:29:28.829Z,92.83
2018-12-07T11:32:01.513Z,92.61
2018-12-07T11:34:30.914Z,92.53
2018-12-07T11:36:57.697Z,92.71
2018-12-07T11:39:24.558Z,93.26
2018-12-07T11:41:51.349Z,93.21
2018-12-07T11:44:18.124Z,93.06
2018-12-07T11:46:44.901Z,91.60
2018-12-07T11:49:11.663Z,91.48
2018-12-07T11:51:38.443Z,91.34
2018-12-07T11:54:05.201Z,89.88
2018-12-07T11:56:31.973Z,89.47
2018-12-07T11:58:58.729Z,90.35
2018-12-07T12:01:25.588Z,90.24
2018-12-07T12:03:52.467Z,88.92
2018-12-07T12:06:19.277Z,89.30
2018-12-07T12:08:46.061Z,89.78
2018-12-07T12:11:12.868Z,89.49
2018-12-07T12:13:39.641Z,88.33
2018-12-07T12:16:06.474Z,88.54
2018-12-07T12:18:33.353Z,88.74
2018-12-07T12:21:00.143Z,88.75
2018-12-07T12:23:26.941Z,89.18
2018-12-07T12:25:53.766Z,88.85
2018-12-07T12:28:20.569Z,88.12
2018-12-07T12:30:47.349Z,88.18
2018-12-07T12:33:14.253Z,88.90
2018-12-07T12:35:40.956Z,88.24
2018-12-07T12:38:07.765Z,87.83
2018-12-07T12:40:34.569Z,87.91
2018-12-07T12:43:01.369Z,87.90
2018-12-07T12:45:28.189Z,87.32
2018-12-07T12:47:54.985Z,86.57
2018-12-07T12:50:27.501Z,86.50
2018-12-07T12:52:54.289Z,87.40
2018-12-07T12:55:21.052Z,86.18
2018-12-07T12:57:47.873Z,86.23
2018-12-07T13:00:14.670Z,86.46
2018-12-07T13:02:41.465Z,86.06
2018-12-07T13:05:08.273Z,85.40
2018-12-07T13:07:35.122Z,85.29
2018-12-07T13:10:02.560Z,85.36
2018-12-07T13:12:29.384Z,85.84
2018-12-07T13:14:56.181Z,84.32
2018-12-07T13:17:23.785Z,84.57
2018-12-07T13:19:51.632Z,83.79
2018-12-07T13:22:18.425Z,83.58
2018-12-07T13:24:45.209Z,83.52
2018-12-07T13:27:12.851Z,83.37
2018-12-07T13:29:39.408Z,82.09
2018-12-07T13:32:06.205Z,81.37
2018-12-07T13:34:33.001Z,83.03
2018-12-07T13:36:59.905Z,81.93
2018-12-07T13:39:26.922Z,82.41
2018-12-07T13:41:53.725Z,82.51
2018-12-07T13:44:20.602Z,81.29
2018-12-07T13:46:47.414Z,82.58
2018-12-07T13:49:14.438Z,82.82
2018-12-07T13:51:41.127Z,83.14
2018-12-07T13:54:08.047Z,81.93
2018-12-07T13:56:34.739Z,81.67
2018-12-07T13:59:01.892Z,81.26
2018-12-07T14:01:28.646Z,80.98
2018-12-07T14:03:55.408Z,81.33
2018-12-07T14:06:22.192Z,81.12
2018-12-07T14:08:48.995Z,80.69
2018-12-07T14:11:15.740Z,80.45
2018-12-07T14:13:42.683Z,80.16
2018-12-07T14:16:09.518Z,78.98
2018-12-07T14:18:36.415Z,79.99
2018-12-07T14:21:03.464Z,78.85
2018-12-07T14:23:30.195Z,79.02
2018-12-07T14:25:57.110Z,79.39
2018-12-07T14:28:23.684Z,78.30
2018-12-07T14:30:50.613Z,78.20
2018-12-07T14:33:17.281Z,78.36
2018-12-07T14:35:44.044Z,77.45
2018-12-07T14:38:10.911Z,77.62
2018-12-07T14:40:37.660Z,77.79
2018-12-07T14:43:04.624Z,77.08
2018-12-07T14:45:31.234Z,75.98
2018-12-07T14:47:58.063Z,77.14
2018-12-07T14:50:25.035Z,76.80
2018-12-07T14:52:51.807Z,77.47
2018-12-07T14:55:18.467Z,77.84
2018-12-07T14:57:45.335Z,77.06
2018-12-07T15:00:12.282Z,76.36
2018-12-07T15:02:39.017Z,76.50
2018-12-07T15:05:05.821Z,76.49
2018-12-07T15:07:32.639Z,77.04
2018-12-07T15:09:59.469Z,76.01
2018-12-07T15:12:26.431Z,75.43
2018-12-07T15:14:53.381Z,76.00
2018-12-07T15:17:20.190Z,75.91
2018-12-07T15:19:46.944Z,77.07
2018-12-07T15:22:13.642Z,75.93
2018-12-07T15:24:40.565Z,75.53
2018-12-07T15:27:07.273Z,74.61
2018-12-07T15:29:34.293Z,75.75
2018-12-07T15:32:01.042Z,75.36
2018-12-07T15:34:27.859Z,73.51
2018-12-07T15:36:54.521Z,73.46
2018-12-07T15:39:21.455Z,73.30
2018-12-07T15:41:48.164Z,73.55
2018-12-07T15:44:14.830Z,73.42
2018-12-07T15:46:42.078Z,71.90
2018-12-07T15:49:08.790Z,72.63
2018-12-07T15:51:35.813Z,73.16
2018-12-07T15:54:02.787Z,72.74
2018-12-07T15:56:29.630Z,73.29
2018-12-07T15:58:56.554Z,73.21
2018-12-07T16:01:23.361Z,72.65
2018-12-07T16:03:50.357Z,71.89
2018-12-07T16:06:17.017Z,71.54
2018-12-07T16:08:43.864Z,71.59
2018-12-07T16:11:10.747Z,71.83
2018-12-07T16:13:37.784Z,71.92
2018-12-07T16:16:04.570Z,71.79
2018-12-07T16:18:31.534Z,71.89
2018-12-07T16:20:58.190Z,70.82
2018-12-07T16:23:25.067Z,71.14
2018-12-07T16:25:51.879Z,70.81
2018-12-07T16:28:18.628Z,70.95
2018-12-07T16:30:45.897Z,71.87
2018-12-07T16:33:12.557Z,71.27
2018-12-07T16:35:39.630Z,73.39
2018-12-07T16:38:06.153Z,75.14
2018-12-07T16:40:32.989Z,74.11
2018-12-07T16:42:59.887Z,75.63
2018-12-07T16:45:26.912Z,74.60
2018-12-07T16:47:53.541Z,74.76
2018-12-07T16:50:20.345Z,74.44
2018-12-07T16:52:47.321Z,75.28
2018-12-07T16:55:14.133Z,75.13
2018-12-07T16:57:41.142Z,74.53
2018-12-07T17:00:07.861Z,74.42
2018-12-07T17:02:34.722Z,74.64
2018-12-07T17:05:01.479Z,74.23
2018-12-07T17:07:28.482Z,73.73
2018-12-07T17:09:55.316Z,73.50
2018-12-07T17:12:22.179Z,74.37
2018-12-07T17:14:48.960Z,74.02
2018-12-07T17:17:15.684Z,73.55
2018-12-07T17:19:42.509Z,73.33
2018-12-07T17:22:09.662Z,73.94
2018-12-07T17:24:36.561Z,75.04
2018-12-07T17:27:03.437Z,74.88
2018-12-07T17:29:30.086Z,76.26
2018-12-07T17:31:58.098Z,75.80
2018-12-07T17:34:25.041Z,77.65
2018-12-07T17:36:51.649Z,78.02
2018-12-07T17:39:18.445Z,80.56
2018-12-07T17:41:45.233Z,80.85
2018-12-07T17:44:12.131Z,82.42
2018-12-07T17:46:38.945Z,85.76
2018-12-07T17:49:05.924Z,87.78
2018-12-07T17:51:32.596Z,89.59
2018-12-07T17:53:59.938Z,90.62
2018-12-07T17:56:26.927Z,90.74
2018-12-07T17:58:53.866Z,91.64
2018-12-07T18:01:20.374Z,93.12
2018-12-07T18:03:47.224Z,93.53
2018-12-07T18:06:14.072Z,93.06
2018-12-07T18:08:40.895Z,93.56
2018-12-07T18:11:07.856Z,94.27
2018-12-07T18:13:34.510Z,95.03
2018-12-07T18:16:01.241Z,95.55
2018-12-07T18:18:28.196Z,95.55
2018-12-07T18:20:54.917Z,95.98
2018-12-07T18:23:21.828Z,95.97
2018-12-07T18:25:49.319Z,95.33
2018-12-07T18:28:18.291Z,96.47
2018-12-07T18:30:45.325Z,96.62
2018-12-07T18:33:12.579Z,97.34
2018-12-07T18:35:40.398Z,97.65
2018-12-07T18:38:07.205Z,97.66
2018-12-07T18:40:33.797Z,98.70
2018-12-07T18:43:00.671Z,98.53
2018-12-07T18:45:27.656Z,98.77
2018-12-07T18:47:54.243Z,98.40
2018-12-07T18:50:20.947Z,98.72
2018-12-07T18:52:47.774Z,99.37
2018-12-07T18:55:14.971Z,100.00
2018-12-07T18:57:41.610Z,100.00
2018-12-07T19:00:08.945Z,99.18
2018-12-07T19:02:35.493Z,100.00
2018-12-07T19:05:02.385Z,99.63
2018-12-07T19:07:29.179Z,100.00
2018-12-07T19:09:56.028Z,100.00
2018-12-07T19:12:22.657Z,98.78
2018-12-07T19:14:49.684Z,98.35
2018-12-07T19:17:16.197Z,98.99
2018-12-07T19:19:43.323Z,96.69
2018-12-07T19:22:09.845Z,97.37
2018-12-07T19:24:38.187Z,95.29
2018-12-07T19:27:04.890Z,94.75
2018-12-07T19:29:31.972Z,92.11
2018-12-07T19:31:58.615Z,87.90
2018-12-07T19:34:25.667Z,84.61
2018-12-07T19:36:52.412Z,86.46
2018-12-07T19:39:19.493Z,83.36
2018-12-07T19:41:46.438Z,83.75
2018-12-07T19:44:13.195Z,83.13
2018-12-07T19:46:39.884Z,83.13
2018-12-07T19:49:06.802Z,83.90
2018-12-07T19:51:33.411Z,83.42
2018-12-07T19:54:01.609Z,83.85
2018-12-07T19:56:28.634Z,82.89
2018-12-07T19:58:55.091Z,82.40
2018-12-07T20:01:21.872Z,83.30
2018-12-07T20:03:48.893Z,84.63
2018-12-07T20:06:15.694Z,83.51
2018-12-07T20:08:42.173Z,82.53
2018-12-07T20:11:08.932Z,82.87
2018-12-07T20:13:35.757Z,82.50
2018-12-07T20:16:02.913Z,83.81
2018-12-07T20:18:29.590Z,82.34
2018-12-07T20:20:56.292Z,82.25
2018-12-07T20:23:23.325Z,80.67
2018-12-07T20:25:50.154Z,79.84
2018-12-07T20:28:17.097Z,80.77
2018-12-07T20:30:43.764Z,78.39
2018-12-07T20:33:10.573Z,80.51
2018-12-07T20:35:37.590Z,80.74
2018-12-07T20:38:04.531Z,79.87
2018-12-07T20:40:30.944Z,81.11
2018-12-07T20:42:57.963Z,79.67
2018-12-07T20:45:24.738Z,79.46
2018-12-07T20:47:51.265Z,78.43
2018-12-07T20:50:18.184Z,78.94
2018-12-07T20:52:44.805Z,78.64
2018-12-07T20:55:11.564Z,77.79
2018-12-07T20:57:38.683Z,78.20
2018-12-07T21:00:06.756Z,78.89
2018-12-07T21:02:33.750Z,78.07
2018-12-07T21:05:30.733Z,78.50
2018-12-07T21:08:08.914Z,78.90
2018-12-07T21:11:01.835Z,79.35
2018-12-07T21:13:53.603Z,77.38
2018-12-07T21:17:06.816Z,78.00
2018-12-07T21:19:35.204Z,77.82
2018-12-07T21:22:01.862Z,77.08
2018-12-07T21:24:28.728Z,77.36
2018-12-07T21:26:55.236Z,78.08
2018-12-07T21:29:21.961Z,78.26
2018-12-07T21:31:48.872Z,77.80
2018-12-07T21:34:27.405Z,77.66
2018-12-07T21:36:53.921Z,77.76
2018-12-07T21:39:41.998Z,76.16
2018-12-07T21:42:09.120Z,77.57
2018-12-07T21:44:35.723Z,77.83
2018-12-07T21:47:02.465Z,77.45
2018-12-07T21:49:32.936Z,78.45
2018-12-07T21:52:15.396Z,78.15
2018-12-07T21:54:42.474Z,77.91
2018-12-07T21:57:09.173Z,78.79
2018-12-07T21:59:35.797Z,79.37
2018-12-07T22:02:02.611Z,78.73
2018-12-07T22:04:29.360Z,78.08
2018-12-07T22:06:56.104Z,77.59
2018-12-07T22:09:23.134Z,76.62
2018-12-07T22:11:50.051Z,76.78
2018-12-07T22:14:16.456Z,77.01
2018-12-07T22:16:43.182Z,76.22
2018-12-07T22:19:10.312Z,76.63
2018-12-07T22:21:36.837Z,75.97
2018-12-07T22:24:03.698Z,76.45
2018-12-07T22:26:30.540Z,76.18
2018-12-07T22:28:57.408Z,76.41
2018-12-07T22:31:24.136Z,76.94
2018-12-07T22:33:50.848Z,78.27
2018-12-07T22:36:17.765Z,78.34
2018-12-07T22:38:44.300Z,77.88
2018-12-07T22:41:11.376Z,78.92
2018-12-07T22:43:37.927Z,78.64
2018-12-07T22:46:04.637Z,78.70
2018-12-07T22:48:31.633Z,79.49
2018-12-07T22:50:58.194Z,79.88
2018-12-07T22:53:24.985Z,80.14
2018-12-07T22:55:51.753Z,78.95
2018-12-07T22:58:18.525Z,79.12
2018-12-07T23:00:45.292Z,78.97
2018-12-07T23:03:12.198Z,79.12
2018-12-07T23:05:39.201Z,78.82
2018-12-07T23:08:06.148Z,79.36
2018-12-07T23:10:32.916Z,79.32
2018-12-07T23:12:59.696Z,81.65
2018-12-07T23:15:26.464Z,82.66
2018-12-07T23:17:53.248Z,84.28
2018-12-07T23:20:20.065Z,85.12
2018-12-07T23:22:49.060Z,84.63
2018-12-07T23:25:13.625Z,83.50
2018-12-07T23:27:40.385Z,83.26
2018-12-07T23:30:08.152Z,82.64
2018-12-07T23:32:36.284Z,83.62
2018-12-07T23:35:01.701Z,83.69
2018-12-07T23:37:28.461Z,82.80
2018-12-07T23:39:55.245Z,83.37
2018-12-07T23:42:22.033Z,81.77
2018-12-07T23:44:48.817Z,81.71
2018-12-07T23:47:15.572Z,81.69
2018-12-07T23:49:42.347Z,81.57
2018-12-07T23:52:09.114Z,82.20
2018-12-07T23:54:35.889Z,81.21
2018-12-07T23:57:02.645Z,79.97
2018-12-07T23:59:29.437Z,79.41
